createdAt,value
2023-05-14T00:00:23.619Z,116.58
2023-05-14T00:01:23.368Z,119.68
2023-05-14T00:02:23.468Z,118.84
2023-05-14T00:03:23.528Z,118.88
2023-05-14T00:04:23.570Z,121.41
2023-05-14T00:05:23.543Z,121.43
2023-05-14T00:06:23.612Z,118.63
2023-05-14T00:07:23.661Z,117.97
2023-05-14T00:08:23.713Z,118.79
2023-05-14T00:09:23.795Z,120.07
2023-05-14T00:10:24.022Z,119.06
2023-05-14T00:11:23.911Z,119.47
2023-05-14T00:12:23.922Z,118.74
2023-05-14T00:13:23.978Z,118.25
2023-05-14T00:14:24.032Z,120.63
2023-05-14T00:15:24.073Z,121.46
2023-05-14T00:16:24.166Z,121.51
2023-05-14T00:17:24.188Z,119.12
2023-05-14T00:18:24.305Z,122.53
2023-05-14T00:19:24.289Z,121.08
2023-05-14T00:20:24.562Z,120.25
2023-05-14T00:21:24.393Z,119.37
2023-05-14T00:22:24.442Z,121.80
2023-05-14T00:23:24.467Z,118.71
2023-05-14T00:24:24.511Z,118.97
2023-05-14T00:25:24.596Z,119.31
2023-05-14T00:26:24.666Z,120.95
2023-05-14T00:27:24.686Z,120.03
2023-05-14T00:28:24.753Z,121.97
2023-05-14T00:29:24.794Z,120.21
2023-05-14T00:30:25.103Z,119.98
2023-05-14T00:31:25.010Z,118.84
2023-05-14T00:32:24.988Z,120.39
2023-05-14T00:33:25.007Z,119.99
2023-05-14T00:34:25.083Z,119.27
2023-05-14T00:35:25.144Z,117.98
2023-05-14T00:36:25.150Z,121.17
2023-05-14T00:37:25.219Z,120.05
2023-05-14T00:38:25.312Z,120.65
2023-05-14T00:39:25.388Z,123.50
2023-05-14T00:40:25.634Z,122.09
2023-05-14T00:41:25.471Z,123.17
2023-05-14T00:42:25.558Z,124.15
2023-05-14T00:43:25.560Z,123.70
2023-05-14T00:44:25.613Z,119.16
2023-05-14T00:45:25.739Z,120.29
2023-05-14T00:46:25.816Z,119.93
2023-05-14T00:47:25.883Z,119.74
2023-05-14T00:48:25.915Z,119.35
2023-05-14T00:49:25.929Z,118.04
2023-05-14T00:50:26.277Z,119.85
2023-05-14T00:51:26.057Z,121.53
2023-05-14T00:52:26.083Z,120.97
2023-05-14T00:53:26.164Z,119.96
2023-05-14T00:54:26.279Z,121.79
2023-05-14T00:55:26.288Z,121.12
2023-05-14T00:56:26.366Z,118.06
2023-05-14T00:57:26.420Z,117.98
2023-05-14T00:58:26.487Z,119.86
2023-05-14T00:59:26.527Z,117.82
2023-05-14T01:00:26.594Z,121.20
2023-05-14T01:01:26.698Z,120.79
2023-05-14T01:02:26.779Z,120.04
2023-05-14T01:03:26.896Z,120.43
2023-05-14T01:04:26.837Z,120.90
2023-05-14T01:05:26.884Z,120.70
2023-05-14T01:06:26.886Z,120.49
2023-05-14T01:07:26.986Z,118.53
2023-05-14T01:08:27.069Z,119.48
2023-05-14T01:09:27.111Z,122.17
2023-05-14T01:10:27.181Z,117.73
2023-05-14T01:11:27.233Z,118.72
2023-05-14T01:12:27.300Z,119.50
2023-05-14T01:13:27.359Z,116.80
2023-05-14T01:14:27.406Z,117.59
2023-05-14T01:15:27.438Z,120.32
2023-05-14T01:16:27.493Z,119.35
2023-05-14T01:17:27.569Z,119.60
2023-05-14T01:18:27.622Z,121.48
2023-05-14T01:19:27.666Z,119.67
2023-05-14T01:20:27.691Z,122.09
2023-05-14T01:21:27.760Z,120.99
2023-05-14T01:22:27.812Z,120.46
2023-05-14T01:23:27.887Z,119.80
2023-05-14T01:24:28.052Z,119.57
2023-05-14T01:25:28.032Z,120.16
2023-05-14T01:26:28.107Z,120.87
2023-05-14T01:27:28.120Z,122.00
2023-05-14T01:28:28.212Z,119.11
2023-05-14T01:29:28.238Z,119.81
2023-05-14T01:30:28.338Z,120.23
2023-05-14T01:31:28.384Z,121.89
2023-05-14T01:32:28.520Z,119.48
2023-05-14T01:33:28.623Z,119.83
2023-05-14T01:34:28.572Z,122.48
2023-05-14T01:35:28.639Z,120.71
2023-05-14T01:36:28.672Z,117.13
2023-05-14T01:37:28.784Z,119.95
2023-05-14T01:38:28.829Z,121.30
2023-05-14T01:39:28.893Z,116.83
2023-05-14T01:40:28.909Z,121.86
2023-05-14T01:41:29.020Z,121.12
2023-05-14T01:42:29.027Z,117.01
2023-05-14T01:43:29.168Z,120.10
2023-05-14T01:44:29.162Z,120.41
2023-05-14T01:45:29.252Z,119.61
2023-05-14T01:46:29.346Z,117.80
2023-05-14T01:47:29.397Z,118.24
2023-05-14T01:48:29.412Z,119.29
2023-05-14T01:49:29.479Z,117.54
2023-05-14T01:50:29.551Z,119.77
2023-05-14T01:51:29.610Z,120.11
2023-05-14T01:52:29.643Z,119.54
2023-05-14T01:53:29.701Z,118.49
2023-05-14T01:54:29.783Z,121.61
2023-05-14T01:55:29.823Z,120.03
2023-05-14T01:56:29.876Z,118.69
2023-05-14T01:57:29.933Z,119.81
2023-05-14T01:58:29.969Z,117.65
2023-05-14T01:59:30.030Z,122.00
2023-05-14T02:00:30.103Z,116.48
2023-05-14T02:01:30.228Z,118.76
2023-05-14T02:02:30.249Z,119.07
2023-05-14T02:03:30.333Z,119.98
2023-05-14T02:04:30.320Z,116.69
2023-05-14T02:05:30.420Z,119.16
2023-05-14T02:06:30.459Z,119.57
2023-05-14T02:07:30.484Z,116.30
2023-05-14T02:08:30.573Z,119.43
2023-05-14T02:09:30.609Z,121.27
2023-05-14T02:10:30.636Z,119.22
2023-05-14T02:11:30.774Z,122.29
2023-05-14T02:12:30.767Z,117.44
2023-05-14T02:13:30.837Z,119.47
2023-05-14T02:14:30.978Z,119.05
2023-05-14T02:15:31.044Z,120.25
2023-05-14T02:16:31.088Z,121.12
2023-05-14T02:17:31.207Z,117.99
2023-05-14T02:18:31.224Z,118.49
2023-05-14T02:19:31.219Z,119.91
2023-05-14T02:20:31.257Z,118.49
2023-05-14T02:21:31.302Z,116.39
2023-05-14T02:22:31.334Z,117.23
2023-05-14T02:23:40.954Z,118.24
2023-05-14T02:24:32.398Z,118.34
2023-05-14T02:25:31.378Z,118.62
2023-05-14T02:26:31.376Z,119.10
2023-05-14T02:27:31.391Z,119.68
2023-05-14T02:28:31.392Z,121.43
2023-05-14T02:29:31.397Z,116.26
2023-05-14T02:30:31.424Z,120.83
2023-05-14T02:31:31.374Z,121.36
2023-05-14T02:32:31.447Z,120.58
2023-05-14T02:33:31.444Z,119.37
2023-05-14T02:34:31.316Z,121.41
2023-05-14T02:35:31.366Z,117.80
2023-05-14T02:36:31.437Z,119.31
2023-05-14T02:37:31.457Z,120.25
2023-05-14T02:38:31.445Z,121.83
2023-05-14T02:39:31.588Z,119.05
2023-05-14T02:40:31.510Z,119.29
2023-05-14T02:41:31.577Z,119.24
2023-05-14T02:42:31.591Z,118.73
2023-05-14T02:43:31.642Z,121.89
2023-05-14T02:44:31.783Z,117.15
2023-05-14T02:45:31.709Z,120.24
2023-05-14T02:46:31.789Z,117.75
2023-05-14T02:47:31.773Z,120.42
2023-05-14T02:48:31.837Z,116.19
2023-05-14T02:49:31.880Z,116.61
2023-05-14T02:50:31.840Z,119.11
2023-05-14T02:51:31.863Z,119.70
2023-05-14T02:52:31.897Z,115.57
2023-05-14T02:53:31.894Z,118.33
2023-05-14T02:54:31.900Z,118.87
2023-05-14T02:55:31.923Z,121.45
2023-05-14T02:56:31.901Z,118.88
2023-05-14T02:57:31.991Z,121.30
2023-05-14T02:58:31.939Z,119.74
2023-05-14T02:59:32.064Z,122.20
2023-05-14T03:00:31.962Z,124.08
2023-05-14T03:01:31.998Z,120.23
2023-05-14T03:02:32.138Z,122.45
2023-05-14T03:03:32.050Z,119.56
2023-05-14T03:04:32.081Z,120.13
2023-05-14T03:05:32.098Z,117.88
2023-05-14T03:06:32.149Z,119.71
2023-05-14T03:07:32.152Z,118.54
2023-05-14T03:08:32.182Z,116.74
2023-05-14T03:09:32.144Z,119.45
2023-05-14T03:10:32.160Z,116.10
2023-05-14T03:11:32.214Z,117.24
2023-05-14T03:12:32.231Z,117.81
2023-05-14T03:13:32.243Z,115.42
2023-05-14T03:14:32.255Z,117.66
2023-05-14T03:15:32.214Z,116.54
2023-05-14T03:16:32.287Z,117.10
2023-05-14T03:17:32.335Z,119.85
2023-05-14T03:18:32.290Z,120.50
2023-05-14T03:19:32.312Z,120.44
2023-05-14T03:20:32.360Z,118.85
2023-05-14T03:21:32.346Z,121.75
2023-05-14T03:22:32.344Z,117.94
2023-05-14T03:23:32.416Z,118.02
2023-05-14T03:24:32.390Z,118.45
2023-05-14T03:25:32.372Z,116.77
2023-05-14T03:26:32.399Z,118.25
2023-05-14T03:27:32.388Z,116.04
2023-05-14T03:28:32.407Z,113.22
2023-05-14T03:29:32.420Z,114.41
2023-05-14T03:30:32.468Z,117.97
2023-05-14T03:31:32.415Z,117.86
2023-05-14T03:32:32.483Z,119.67
2023-05-14T03:33:32.389Z,119.02
2023-05-14T03:34:32.416Z,116.67
2023-05-14T03:35:32.452Z,117.88
2023-05-14T03:36:32.395Z,116.78
2023-05-14T03:37:32.398Z,117.84
2023-05-14T03:38:32.470Z,117.82
2023-05-14T03:39:32.485Z,120.45
2023-05-14T03:40:32.496Z,118.46
2023-05-14T03:41:32.528Z,117.92
2023-05-14T03:42:32.538Z,115.31
2023-05-14T03:43:32.538Z,118.09
2023-05-14T03:44:32.522Z,117.33
2023-05-14T03:45:32.531Z,117.63
2023-05-14T03:46:32.573Z,116.41
2023-05-14T03:47:32.541Z,116.09
2023-05-14T03:48:32.602Z,118.23
2023-05-14T03:49:32.578Z,114.83
2023-05-14T03:50:32.537Z,117.50
2023-05-14T03:51:32.566Z,117.06
2023-05-14T03:52:32.573Z,117.41
2023-05-14T03:53:32.532Z,116.75
2023-05-14T03:54:32.514Z,117.13
2023-05-14T03:55:32.538Z,117.76
2023-05-14T03:56:32.604Z,120.15
2023-05-14T03:57:32.559Z,116.09
2023-05-14T03:58:32.615Z,116.73
2023-05-14T03:59:32.608Z,117.32
2023-05-14T04:00:32.604Z,116.58
2023-05-14T04:01:32.656Z,121.47
2023-05-14T04:02:32.732Z,116.55
2023-05-14T04:03:32.867Z,118.47
2023-05-14T04:04:32.693Z,116.35
2023-05-14T04:05:32.713Z,117.39
2023-05-14T04:06:32.683Z,117.06
2023-05-14T04:07:32.715Z,117.91
2023-05-14T04:08:32.727Z,116.90
2023-05-14T04:09:32.744Z,117.57
2023-05-14T04:10:32.788Z,119.04
2023-05-14T04:11:32.736Z,115.85
2023-05-14T04:12:32.781Z,119.96
2023-05-14T04:13:32.759Z,117.53
2023-05-14T04:14:32.765Z,115.85
2023-05-14T04:15:32.741Z,114.99
2023-05-14T04:16:32.811Z,115.13
2023-05-14T04:17:34.560Z,117.59
2023-05-14T04:18:32.879Z,116.15
2023-05-14T04:19:32.790Z,114.68
2023-05-14T04:20:32.804Z,120.15
2023-05-14T04:21:32.788Z,118.07
2023-05-14T04:22:32.788Z,117.28
2023-05-14T04:23:32.815Z,117.31
2023-05-14T04:24:32.780Z,116.02
2023-05-14T04:25:32.837Z,114.48
2023-05-14T04:26:32.828Z,116.21
2023-05-14T04:27:32.835Z,117.54
2023-05-14T04:28:32.818Z,116.20
2023-05-14T04:29:32.914Z,116.00
2023-05-14T04:30:32.828Z,119.03
2023-05-14T04:31:32.880Z,117.43
2023-05-14T04:32:32.872Z,116.03
2023-05-14T04:33:32.845Z,117.17
2023-05-14T04:34:32.912Z,115.58
2023-05-14T04:35:32.934Z,118.68
2023-05-14T04:36:32.953Z,114.04
2023-05-14T04:37:33.036Z,114.65
2023-05-14T04:38:32.963Z,116.51
2023-05-14T04:39:32.995Z,114.90
2023-05-14T04:40:32.974Z,115.27
2023-05-14T04:41:32.994Z,117.51
2023-05-14T04:42:33.045Z,119.11
2023-05-14T04:43:33.057Z,115.58
2023-05-14T04:44:33.076Z,115.77
2023-05-14T04:45:34.314Z,116.26
2023-05-14T04:46:33.245Z,116.19
2023-05-14T04:47:33.201Z,117.14
2023-05-14T04:48:33.140Z,115.83
2023-05-14T04:49:33.160Z,117.50
2023-05-14T04:50:33.152Z,114.35
2023-05-14T04:51:33.135Z,115.39
2023-05-14T04:52:33.159Z,117.96
2023-05-14T04:53:33.164Z,118.17
2023-05-14T04:54:33.205Z,116.68
2023-05-14T04:55:33.184Z,116.71
2023-05-14T04:56:33.242Z,117.03
2023-05-14T04:57:33.291Z,114.87
2023-05-14T04:58:35.101Z,117.83
2023-05-14T04:59:33.340Z,117.54
2023-05-14T05:00:33.372Z,114.98
2023-05-14T05:01:33.443Z,115.73
2023-05-14T05:02:33.433Z,116.10
2023-05-14T05:03:33.428Z,115.33
2023-05-14T05:04:33.373Z,113.48
2023-05-14T05:05:33.375Z,114.51
2023-05-14T05:06:33.361Z,114.96
2023-05-14T05:07:33.393Z,113.72
2023-05-14T05:08:33.407Z,117.20
2023-05-14T05:09:33.548Z,116.80
2023-05-14T05:10:33.452Z,113.42
2023-05-14T05:11:33.453Z,115.05
2023-05-14T05:12:33.508Z,114.45
2023-05-14T05:13:33.416Z,114.43
2023-05-14T05:14:33.441Z,114.97
2023-05-14T05:15:33.454Z,114.55
2023-05-14T05:16:33.466Z,116.56
2023-05-14T05:17:33.472Z,115.28
2023-05-14T05:18:33.470Z,116.72
2023-05-14T05:19:43.303Z,113.04
2023-05-14T05:20:34.429Z,113.36
2023-05-14T05:21:33.434Z,113.86
2023-05-14T05:22:33.518Z,114.13
2023-05-14T05:23:33.402Z,114.91
2023-05-14T05:24:33.388Z,117.59
2023-05-14T05:25:33.420Z,115.23
2023-05-14T05:26:33.381Z,114.59
2023-05-14T05:27:33.470Z,112.95
2023-05-14T05:28:33.383Z,116.80
2023-05-14T05:29:33.362Z,116.52
2023-05-14T05:30:33.401Z,115.41
2023-05-14T05:31:33.469Z,118.06
2023-05-14T05:32:33.376Z,112.96
2023-05-14T05:33:33.351Z,115.40
2023-05-14T05:34:33.360Z,117.78
2023-05-14T05:35:33.339Z,115.24
2023-05-14T05:36:33.336Z,114.62
2023-05-14T05:37:33.304Z,113.03
2023-05-14T05:38:33.327Z,116.73
2023-05-14T05:39:33.429Z,115.81
2023-05-14T05:40:33.285Z,115.27
2023-05-14T05:41:33.321Z,115.83
2023-05-14T05:42:33.257Z,112.78
2023-05-14T05:43:33.287Z,115.36
2023-05-14T05:44:33.285Z,113.78
2023-05-14T05:45:33.264Z,115.50
2023-05-14T05:46:33.372Z,114.50
2023-05-14T05:47:33.407Z,114.05
2023-05-14T05:48:33.247Z,114.64
2023-05-14T05:49:33.418Z,113.68
2023-05-14T05:50:33.260Z,113.37
2023-05-14T05:51:33.322Z,116.91
2023-05-14T05:52:33.218Z,113.24
2023-05-14T05:53:33.228Z,114.21
2023-05-14T05:54:33.217Z,116.61
2023-05-14T05:55:33.265Z,114.43
2023-05-14T05:56:33.262Z,113.15
2023-05-14T05:57:33.310Z,113.22
2023-05-14T05:58:33.302Z,111.05
2023-05-14T05:59:33.553Z,115.66
2023-05-14T06:00:33.487Z,115.98
2023-05-14T06:01:33.489Z,114.73
2023-05-14T06:02:33.647Z,113.68
2023-05-14T06:03:33.606Z,112.34
2023-05-14T06:04:33.641Z,113.25
2023-05-14T06:05:33.775Z,113.25
2023-05-14T06:06:33.790Z,114.75
2023-05-14T06:07:33.833Z,115.25
2023-05-14T06:08:33.895Z,115.14
2023-05-14T06:09:33.953Z,116.04
2023-05-14T06:10:34.090Z,114.44
2023-05-14T06:11:34.076Z,113.57
2023-05-14T06:12:34.126Z,116.15
2023-05-14T06:13:34.203Z,116.67
2023-05-14T06:14:34.263Z,114.70
2023-05-14T06:15:34.310Z,116.29
2023-05-14T06:16:34.460Z,113.45
2023-05-14T06:17:34.425Z,113.11
2023-05-14T06:18:34.576Z,113.88
2023-05-14T06:19:34.604Z,113.41
2023-05-14T06:20:34.574Z,116.13
2023-05-14T06:21:34.690Z,114.72
2023-05-14T06:22:34.753Z,115.83
2023-05-14T06:23:34.795Z,113.56
2023-05-14T06:24:34.830Z,114.76
2023-05-14T06:25:34.902Z,115.55
2023-05-14T06:26:35.032Z,116.30
2023-05-14T06:27:35.054Z,116.00
2023-05-14T06:28:35.093Z,114.55
2023-05-14T06:29:35.178Z,116.00
2023-05-14T06:30:35.217Z,113.65
2023-05-14T06:31:35.350Z,114.88
2023-05-14T06:32:35.376Z,113.09
2023-05-14T06:33:35.434Z,114.39
2023-05-14T06:34:35.443Z,114.73
2023-05-14T06:35:35.504Z,114.54
2023-05-14T06:36:35.568Z,115.05
2023-05-14T06:37:35.619Z,114.46
2023-05-14T06:38:35.667Z,115.44
2023-05-14T06:39:35.714Z,115.50
2023-05-14T06:40:35.795Z,114.65
2023-05-14T06:41:35.903Z,118.38
2023-05-14T06:42:35.866Z,113.05
2023-05-14T06:43:35.953Z,115.00
2023-05-14T06:44:36.000Z,111.45
2023-05-14T06:45:36.054Z,112.46
2023-05-14T06:46:36.098Z,110.62
2023-05-14T06:47:36.238Z,113.57
2023-05-14T06:48:36.249Z,110.96
2023-05-14T06:49:36.206Z,114.24
2023-05-14T06:50:36.243Z,116.11
2023-05-14T06:51:36.332Z,113.56
2023-05-14T06:52:36.336Z,115.21
2023-05-14T06:53:36.441Z,115.16
2023-05-14T06:54:36.479Z,115.42
2023-05-14T06:55:36.515Z,112.86
2023-05-14T06:56:36.568Z,113.59
2023-05-14T06:57:38.543Z,113.52
2023-05-14T06:58:36.571Z,113.48
2023-05-14T06:59:36.563Z,115.49
2023-05-14T07:00:36.618Z,115.17
2023-05-14T07:01:36.572Z,113.26
2023-05-14T07:02:36.601Z,110.83
2023-05-14T07:03:36.527Z,114.57
2023-05-14T07:04:36.657Z,115.76
2023-05-14T07:05:36.521Z,114.28
2023-05-14T07:06:36.524Z,115.81
2023-05-14T07:07:36.544Z,113.10
2023-05-14T07:08:36.512Z,114.73
2023-05-14T07:09:36.504Z,112.45
2023-05-14T07:10:36.510Z,114.38
2023-05-14T07:11:36.471Z,115.81
2023-05-14T07:12:36.494Z,113.25
2023-05-14T07:13:36.485Z,114.43
2023-05-14T07:14:36.498Z,110.65
2023-05-14T07:15:36.440Z,111.92
2023-05-14T07:16:36.506Z,112.53
2023-05-14T07:17:36.487Z,113.26
2023-05-14T07:18:36.478Z,114.85
2023-05-14T07:19:36.472Z,111.93
2023-05-14T07:20:36.438Z,112.33
2023-05-14T07:21:36.444Z,111.23
2023-05-14T07:22:36.408Z,112.33
2023-05-14T07:23:36.391Z,111.02
2023-05-14T07:24:36.399Z,110.15
2023-05-14T07:25:36.402Z,112.40
2023-05-14T07:26:36.355Z,108.01
2023-05-14T07:27:36.439Z,109.29
2023-05-14T07:28:36.325Z,109.84
2023-05-14T07:29:36.416Z,109.56
2023-05-14T07:30:36.380Z,113.54
2023-05-14T07:31:36.449Z,111.96
2023-05-14T07:32:36.341Z,112.37
2023-05-14T07:33:36.363Z,111.03
2023-05-14T07:34:36.316Z,108.42
2023-05-14T07:35:36.321Z,113.86
2023-05-14T07:36:36.291Z,112.08
2023-05-14T07:37:36.328Z,110.06
2023-05-14T07:38:36.262Z,111.57
2023-05-14T07:39:36.277Z,114.78
2023-05-14T07:40:36.328Z,107.58
2023-05-14T07:41:36.410Z,114.87
2023-05-14T07:42:37.448Z,111.22
2023-05-14T07:43:36.477Z,111.94
2023-05-14T07:44:36.543Z,110.66
2023-05-14T07:45:36.544Z,108.49
2023-05-14T07:46:36.637Z,109.51
2023-05-14T07:47:36.957Z,109.68
2023-05-14T07:48:36.757Z,110.11
2023-05-14T07:49:36.712Z,107.59
2023-05-14T07:50:36.783Z,108.34
2023-05-14T07:51:36.843Z,109.52
2023-05-14T07:52:36.847Z,110.22
2023-05-14T07:53:36.847Z,109.40
2023-05-14T07:54:36.907Z,109.69
2023-05-14T07:55:36.921Z,111.65
2023-05-14T07:56:36.929Z,111.79
2023-05-14T07:57:36.983Z,109.94
2023-05-14T07:58:36.982Z,110.64
2023-05-14T07:59:37.058Z,113.49
2023-05-14T08:00:37.082Z,111.19
2023-05-14T08:01:39.188Z,111.38
2023-05-14T08:02:37.153Z,110.26
2023-05-14T08:03:37.210Z,112.48
2023-05-14T08:04:37.198Z,112.79
2023-05-14T08:05:37.166Z,108.52
2023-05-14T08:06:37.219Z,113.41
2023-05-14T08:07:37.195Z,112.16
2023-05-14T08:08:37.210Z,113.67
2023-05-14T08:09:37.245Z,111.44
2023-05-14T08:10:37.280Z,112.78
2023-05-14T08:11:37.278Z,111.40
2023-05-14T08:12:37.277Z,113.40
2023-05-14T08:13:37.348Z,114.55
2023-05-14T08:14:37.485Z,114.59
2023-05-14T08:15:37.303Z,114.36
2023-05-14T08:16:38.134Z,117.08
2023-05-14T08:17:37.399Z,114.28
2023-05-14T08:18:37.499Z,113.82
2023-05-14T08:19:37.437Z,115.55
2023-05-14T08:20:37.407Z,114.74
2023-05-14T08:21:37.404Z,115.11
2023-05-14T08:22:37.426Z,113.22
2023-05-14T08:23:37.441Z,113.83
2023-05-14T08:24:37.416Z,116.50
2023-05-14T08:25:37.442Z,114.64
2023-05-14T08:26:37.436Z,114.48
2023-05-14T08:27:37.472Z,110.37
2023-05-14T08:28:37.456Z,112.05
2023-05-14T08:29:37.464Z,113.52
2023-05-14T08:30:37.610Z,112.27
2023-05-14T08:31:37.486Z,114.18
2023-05-14T08:32:37.502Z,113.10
2023-05-14T08:33:37.532Z,115.24
2023-05-14T08:34:37.508Z,115.27
2023-05-14T08:35:37.543Z,111.78
2023-05-14T08:36:37.551Z,112.43
2023-05-14T08:37:37.628Z,108.70
2023-05-14T08:38:37.684Z,114.19
2023-05-14T08:39:37.673Z,113.90
2023-05-14T08:40:37.798Z,114.22
2023-05-14T08:41:37.824Z,115.53
2023-05-14T08:42:37.905Z,112.07
2023-05-14T08:43:37.924Z,116.37
2023-05-14T08:44:38.013Z,112.88
2023-05-14T08:45:38.089Z,114.68
2023-05-14T08:46:38.099Z,112.52
2023-05-14T08:47:38.254Z,114.46
2023-05-14T08:48:38.224Z,112.75
2023-05-14T08:49:38.224Z,113.12
2023-05-14T08:50:38.326Z,110.12
2023-05-14T08:51:38.266Z,119.13
2023-05-14T08:52:38.346Z,115.27
2023-05-14T08:53:38.347Z,113.09
2023-05-14T08:54:38.392Z,116.71
2023-05-14T08:55:38.404Z,112.57
2023-05-14T08:56:38.406Z,114.73
2023-05-14T08:57:38.418Z,114.18
2023-05-14T08:58:38.464Z,114.50
2023-05-14T08:59:38.469Z,112.60
2023-05-14T09:00:38.476Z,114.64
2023-05-14T09:01:38.515Z,116.00
2023-05-14T09:02:38.532Z,116.60
2023-05-14T09:03:38.557Z,116.91
2023-05-14T09:04:38.517Z,116.82
2023-05-14T09:05:38.573Z,117.55
2023-05-14T09:06:38.585Z,116.87
2023-05-14T09:07:38.586Z,116.38
2023-05-14T09:08:38.570Z,117.64
2023-05-14T09:09:38.574Z,116.62
2023-05-14T09:10:38.573Z,118.81
2023-05-14T09:11:38.621Z,117.79
2023-05-14T09:12:38.590Z,116.88
2023-05-14T09:13:38.591Z,117.64
2023-05-14T09:14:38.621Z,120.73
2023-05-14T09:15:38.632Z,115.35
2023-05-14T09:16:38.709Z,118.80
2023-05-14T09:17:38.692Z,117.46
2023-05-14T09:18:38.706Z,117.04
2023-05-14T09:19:38.658Z,116.30
2023-05-14T09:20:38.674Z,118.55
2023-05-14T09:21:38.677Z,116.14
2023-05-14T09:22:38.677Z,114.39
2023-05-14T09:23:38.696Z,116.02
2023-05-14T09:24:38.705Z,118.56
2023-05-14T09:25:38.803Z,117.38
2023-05-14T09:26:38.714Z,117.66
2023-05-14T09:27:38.699Z,116.36
2023-05-14T09:28:38.729Z,117.86
2023-05-14T09:29:38.724Z,115.00
2023-05-14T09:30:38.761Z,117.90
2023-05-14T09:31:38.737Z,117.13
2023-05-14T09:32:38.747Z,115.64
2023-05-14T09:33:38.679Z,118.63
2023-05-14T09:34:38.732Z,116.33
2023-05-14T09:35:38.731Z,118.71
2023-05-14T09:36:38.784Z,112.00
2023-05-14T09:37:38.775Z,115.60
2023-05-14T09:38:38.794Z,116.41
2023-05-14T09:39:38.786Z,112.64
2023-05-14T09:40:38.767Z,112.75
2023-05-14T09:41:38.817Z,117.99
2023-05-14T09:42:38.822Z,113.11
2023-05-14T09:43:38.824Z,114.91
2023-05-14T09:44:38.801Z,117.83
2023-05-14T09:45:38.812Z,119.02
2023-05-14T09:46:38.853Z,116.33
2023-05-14T09:47:38.903Z,113.35
2023-05-14T09:48:38.950Z,117.09
2023-05-14T09:49:38.827Z,115.51
2023-05-14T09:50:38.838Z,116.18
2023-05-14T09:51:38.863Z,112.87
2023-05-14T09:52:38.861Z,115.26
2023-05-14T09:53:38.833Z,113.76
2023-05-14T09:54:38.910Z,112.24
2023-05-14T09:55:38.909Z,116.23
2023-05-14T09:56:38.918Z,116.53
2023-05-14T09:57:38.923Z,116.00
2023-05-14T09:58:38.936Z,116.06
2023-05-14T09:59:38.938Z,114.91
2023-05-14T10:00:38.936Z,113.20
2023-05-14T10:01:39.055Z,117.01
2023-05-14T10:02:39.050Z,116.17
2023-05-14T10:03:38.921Z,112.87
2023-05-14T10:04:39.050Z,114.33
2023-05-14T10:05:38.935Z,115.38
2023-05-14T10:06:38.933Z,116.08
2023-05-14T10:07:38.910Z,113.79
2023-05-14T10:08:38.964Z,112.25
2023-05-14T10:09:38.910Z,117.31
2023-05-14T10:10:39.010Z,116.89
2023-05-14T10:11:38.954Z,114.04
2023-05-14T10:12:38.923Z,108.71
2023-05-14T10:13:38.928Z,111.79
2023-05-14T10:14:38.939Z,116.05
2023-05-14T10:15:38.972Z,115.52
2023-05-14T10:16:38.950Z,115.88
2023-05-14T10:17:38.971Z,116.47
2023-05-14T10:18:38.988Z,113.28
2023-05-14T10:19:38.933Z,110.66
2023-05-14T10:20:38.936Z,116.96
2023-05-14T10:21:38.940Z,114.82
2023-05-14T10:22:38.951Z,113.47
2023-05-14T10:23:38.968Z,113.27
2023-05-14T10:24:38.984Z,113.28
2023-05-14T10:25:39.018Z,111.14
2023-05-14T10:26:39.051Z,114.83
2023-05-14T10:27:39.071Z,115.74
2023-05-14T10:28:39.099Z,112.08
2023-05-14T10:29:39.097Z,113.06
2023-05-14T10:30:39.118Z,115.51
2023-05-14T10:31:39.252Z,109.03
2023-05-14T10:32:39.255Z,115.97
2023-05-14T10:33:39.269Z,111.67
2023-05-14T10:34:39.341Z,112.34
2023-05-14T10:35:39.310Z,114.93
2023-05-14T10:36:39.348Z,114.17
2023-05-14T10:37:39.487Z,113.86
2023-05-14T10:38:39.410Z,112.24
2023-05-14T10:39:39.412Z,115.38
2023-05-14T10:40:39.421Z,114.40
2023-05-14T10:41:39.418Z,115.50
2023-05-14T10:42:39.512Z,114.46
2023-05-14T10:43:39.506Z,114.76
2023-05-14T10:44:39.515Z,116.82
2023-05-14T10:45:39.563Z,116.22
2023-05-14T10:46:39.575Z,115.21
2023-05-14T10:47:39.938Z,115.89
2023-05-14T10:48:39.633Z,116.58
2023-05-14T10:49:43.264Z,116.43
2023-05-14T10:50:39.651Z,116.66
2023-05-14T10:51:39.712Z,117.72
2023-05-14T10:52:39.595Z,117.42
2023-05-14T10:53:39.622Z,116.27
2023-05-14T10:54:39.588Z,118.25
2023-05-14T10:55:39.587Z,120.61
2023-05-14T10:56:39.603Z,119.08
2023-05-14T10:57:39.601Z,122.88
2023-05-14T10:58:39.609Z,121.08
2023-05-14T10:59:39.562Z,117.50
2023-05-14T11:00:39.553Z,119.52
2023-05-14T11:01:39.612Z,121.44
2023-05-14T11:02:39.547Z,121.75
2023-05-14T11:03:39.588Z,122.23
2023-05-14T11:04:39.555Z,122.17
2023-05-14T11:05:39.492Z,120.86
2023-05-14T11:06:39.496Z,123.66
2023-05-14T11:07:39.505Z,124.23
2023-05-14T11:08:39.510Z,122.80
2023-05-14T11:09:39.511Z,122.87
2023-05-14T11:10:39.495Z,126.84
2023-05-14T11:11:39.485Z,125.80
2023-05-14T11:12:39.513Z,123.05
2023-05-14T11:13:39.469Z,124.76
2023-05-14T11:14:39.456Z,126.21
2023-05-14T11:15:39.468Z,126.99
2023-05-14T11:16:39.434Z,124.60
2023-05-14T11:17:39.448Z,128.01
2023-05-14T11:18:39.458Z,123.36
2023-05-14T11:19:39.463Z,128.12
2023-05-14T11:20:39.395Z,128.48
2023-05-14T11:21:39.422Z,127.69
2023-05-14T11:22:39.404Z,130.02
2023-05-14T11:23:39.410Z,128.93
2023-05-14T11:24:39.393Z,128.99
2023-05-14T11:25:39.341Z,128.78
2023-05-14T11:26:39.436Z,128.11
2023-05-14T11:27:39.425Z,131.49
2023-05-14T11:28:39.392Z,129.72
2023-05-14T11:29:39.402Z,132.74
2023-05-14T11:30:39.362Z,130.33
2023-05-14T11:31:39.352Z,130.90
2023-05-14T11:32:39.362Z,133.77
2023-05-14T11:33:39.351Z,131.51
2023-05-14T11:34:39.349Z,134.00
2023-05-14T11:35:39.350Z,131.09
2023-05-14T11:36:39.300Z,134.08
2023-05-14T11:37:39.295Z,132.00
2023-05-14T11:38:39.298Z,130.15
2023-05-14T11:39:39.407Z,129.90
2023-05-14T11:40:39.401Z,131.71
2023-05-14T11:41:39.397Z,130.44
2023-05-14T11:42:39.444Z,136.22
2023-05-14T11:43:39.451Z,128.14
2023-05-14T11:44:39.455Z,131.68
2023-05-14T11:45:39.494Z,130.38
2023-05-14T11:46:39.647Z,129.51
2023-05-14T11:47:39.539Z,129.60
2023-05-14T11:48:39.543Z,128.71
2023-05-14T11:49:39.587Z,131.10
2023-05-14T11:50:39.675Z,132.19
2023-05-14T11:51:39.675Z,129.46
2023-05-14T11:52:39.680Z,130.71
2023-05-14T11:53:39.729Z,129.04
2023-05-14T11:54:39.728Z,130.45
2023-05-14T11:55:39.804Z,127.28
2023-05-14T11:56:39.807Z,132.26
2023-05-14T11:57:39.801Z,129.48
2023-05-14T11:58:39.826Z,130.34
2023-05-14T11:59:39.841Z,134.68
2023-05-14T12:00:40.906Z,130.61
2023-05-14T12:01:39.893Z,134.55
2023-05-14T12:02:39.977Z,132.99
2023-05-14T12:03:39.976Z,132.34
2023-05-14T12:04:39.944Z,133.82
2023-05-14T12:05:39.965Z,135.73
2023-05-14T12:06:39.972Z,136.58
2023-05-14T12:07:40.027Z,137.33
2023-05-14T12:08:40.030Z,136.51
2023-05-14T12:09:40.045Z,135.22
2023-05-14T12:10:40.102Z,137.25
2023-05-14T12:11:40.112Z,137.21
2023-05-14T12:12:40.119Z,136.14
2023-05-14T12:13:40.156Z,137.16
2023-05-14T12:14:40.155Z,136.55
2023-05-14T12:15:40.205Z,139.07
2023-05-14T12:16:40.268Z,136.45
2023-05-14T12:17:40.260Z,135.50
2023-05-14T12:18:40.288Z,135.45
2023-05-14T12:19:40.193Z,136.52
2023-05-14T12:20:40.234Z,137.69
2023-05-14T12:21:40.207Z,135.62
2023-05-14T12:22:40.179Z,134.34
2023-05-14T12:23:40.254Z,137.03
2023-05-14T12:24:40.265Z,133.49
2023-05-14T12:25:40.252Z,133.47
2023-05-14T12:26:40.238Z,134.00
2023-05-14T12:27:40.260Z,132.48
2023-05-14T12:28:40.262Z,133.66